Claremore, OK

1:43 PM CDT on September 03, 2015 (GMT -0500)
Westwood Addition | | Change Station
CLOSE
Current Station
Personal Weather Station
Location: Claremore, OK
Elevation: 660 ft
Nearby Weather Stations

Elev 660 ft 36.31 °N, 95.64 °W | Updated 30 seconds ago

Partly Cloudy
Partly Cloudy
89.6 °F
Feels Like 96 °F
N
0.9
Wind Variable Wind from WSW
Gusts 2.5 mph

Today
High -- | Low -- °F
--% Chance of Precip.
Yesterday
High -- | Low -- °F
Precip. -- in
6:55 AM 7:47 PM
Waning Gibbous, 68% visible
Pressure 29.98 in
Visibility 10.0 miles
Clouds Scattered Clouds 4200 ft
Heat Index 96 °F
Dew Point 71 °F
Humidity 55%
Rainfall 0.00 in
Snow Depth Not available.
UV 8 out of 12
Pollen 9.90 out of 12
Air Quality Not available.
Flu Activity Not available.
METAR KGCM 031835Z AUTO 21012KT 10SM SCT042 30/20 A2998 RMK AO2
Pressure 29.98 in
Visibility 10.0 miles
Clouds Scattered Clouds 4200 ft
Heat Index 96 °F
Dew Point 71 °F
Humidity 55%
Rainfall 0.00 in
Snow Depth Not available.
UV 8 out of 12
Pollen 9.90 out of 12
Air Quality Not available.
Flu Activity Not available.
METAR KGCM 031835Z AUTO 21012KT 10SM SCT042 30/20 A2998 RMK AO2

10-Day Weather Forecast

×

Almanac

Astronomy

Sep. 03, 2015 Rise Set
Actual Time
Civil Twilight
Nautical Twilight
Astronomical Twilight
Moon
Length of Visible Light
Length of Day
Tomorrow will be .
, % of the Moon is Illuminated

Today's Extremes

State Highs State Lows

Community

WunderPhotos

Upload Photos

1,852,001 photos uploaded!

WunderBlogs® & News

Nearby

Air Quality

  Air Quality AQ Index Pollutant
Not available.

Snow Depth

Station Depth Elevation

Earthquake Activity

City Distance Mag. Time & Date
Minimum magnitude displayed is 2.5.

Coastal Water Temperatures

Place Temperature

Stations

Nearby Weather Stations

Station Location Temp. Windchill Dew Point Humidity Wind Precip. Elev Updated Type